Apostle Islands National Lak, Wisconsin
Current Conditions -  °F | °C
As of 1:29 PM on Sunday 21 Dec 2014 (Local Time) from KASX Reporting Station
Light Snow Light Snow  
Wind Chill: 30°   Ceiling: 2400
Heat Index: 34°   Visibility: 2.5mi
Dew Point: 31°   Wind: 5mph
Humidity: 89%   Direction: 160°SSE
Pressure: 29.84"   Gusts: NA
Location:  46.8614°N, 90.9101°W
Report Text: KASX 211929Z AUTO 16004KT 2 1/2SM -SN BR SCT016 BKN024 OVC033 01/M01 A2984 RMK AO2 P0001 T00111006
Loading
Personal Weather Stations






























Interactive Weather Map New forecast layout! Learn more

10-Day Weather Forecast

Advertisements
Track Severe Weather on mobile